createdAt,value
2018-06-30T00:01:09.961Z,22.70
2018-06-30T00:04:14.179Z,22.50
2018-06-30T00:07:18.598Z,22.60
2018-06-30T00:10:30.679Z,22.60
2018-06-30T00:13:34.908Z,22.60
2018-06-30T00:16:39.392Z,22.60
2018-06-30T00:19:43.708Z,22.60
2018-06-30T00:22:48.021Z,22.50
2018-06-30T00:25:52.324Z,22.60
2018-06-30T00:28:56.629Z,22.50
2018-06-30T00:32:01.685Z,22.50
2018-06-30T00:35:06.074Z,22.50
2018-06-30T00:38:10.773Z,22.50
2018-06-30T00:41:15.085Z,22.40
2018-06-30T00:44:19.737Z,22.50
2018-06-30T00:47:23.875Z,22.40
2018-06-30T00:50:28.357Z,22.40
2018-06-30T00:53:32.675Z,22.40
2018-06-30T00:56:36.839Z,22.40
2018-06-30T00:59:41.129Z,22.40
2018-06-30T01:02:45.283Z,22.30
2018-06-30T01:05:49.706Z,22.30
2018-06-30T01:08:54.063Z,22.40
2018-06-30T01:11:58.235Z,22.50
2018-06-30T01:15:02.598Z,22.50
2018-06-30T01:18:06.807Z,22.50
2018-06-30T01:21:11.166Z,22.40
2018-06-30T01:24:15.052Z,22.40
2018-06-30T01:27:20.208Z,22.40
2018-06-30T01:30:24.495Z,22.40
2018-06-30T01:33:28.489Z,22.40
2018-06-30T01:36:32.832Z,22.40
2018-06-30T01:39:36.879Z,22.40
2018-06-30T01:42:40.948Z,22.30
2018-06-30T01:45:45.309Z,22.30
2018-06-30T01:48:49.621Z,22.20
2018-06-30T01:51:53.974Z,22.20
2018-06-30T01:54:58.230Z,22.10
2018-06-30T01:58:02.486Z,22.00
2018-06-30T02:01:07.019Z,22.00
2018-06-30T02:04:11.361Z,21.90
2018-06-30T02:07:15.662Z,21.90
2018-06-30T02:10:20.091Z,21.80
2018-06-30T02:13:24.328Z,21.80
2018-06-30T02:16:28.972Z,21.70
2018-06-30T02:19:33.282Z,21.70
2018-06-30T02:22:37.636Z,21.60
2018-06-30T02:25:41.934Z,21.50
2018-06-30T02:28:46.258Z,21.50
2018-06-30T02:31:50.569Z,21.40
2018-06-30T02:34:55.144Z,21.40
2018-06-30T02:37:59.588Z,21.30
2018-06-30T02:41:03.985Z,21.20
2018-06-30T02:44:08.464Z,21.20
2018-06-30T02:47:12.780Z,21.10
2018-06-30T02:50:17.159Z,21.10
2018-06-30T02:53:21.426Z,21.10
2018-06-30T02:56:25.771Z,21.00
2018-06-30T02:59:30.045Z,21.00
2018-06-30T03:02:34.450Z,21.00
2018-06-30T03:05:38.887Z,20.90
2018-06-30T03:08:44.054Z,20.80
2018-06-30T03:11:48.500Z,20.70
2018-06-30T03:14:52.762Z,20.70
2018-06-30T03:17:56.993Z,20.60
2018-06-30T03:21:01.400Z,20.60
2018-06-30T03:24:05.614Z,20.70
2018-06-30T03:27:09.908Z,20.60
2018-06-30T03:30:14.214Z,20.60
2018-06-30T03:33:18.468Z,20.60
2018-06-30T03:36:22.766Z,20.60
2018-06-30T03:39:26.897Z,20.60
2018-06-30T03:42:31.071Z,20.50
2018-06-30T03:45:35.472Z,20.60
2018-06-30T03:48:39.571Z,20.60
2018-06-30T03:51:43.767Z,20.60
2018-06-30T03:54:47.864Z,20.70
2018-06-30T03:57:52.128Z,20.70
2018-06-30T04:04:00.868Z,20.80
2018-06-30T04:07:05.199Z,20.80
2018-06-30T04:10:09.487Z,20.80
2018-06-30T04:13:13.810Z,20.90
2018-06-30T04:16:18.176Z,20.90
2018-06-30T04:19:22.446Z,21.00
2018-06-30T04:22:26.668Z,21.00
2018-06-30T04:25:31.139Z,21.00
2018-06-30T04:28:35.407Z,21.10
2018-06-30T04:31:39.941Z,21.00
2018-06-30T04:34:44.142Z,21.10
2018-06-30T04:37:48.579Z,21.10
2018-06-30T04:40:52.767Z,21.20
2018-06-30T04:43:57.090Z,21.30
2018-06-30T04:47:01.556Z,21.50
2018-06-30T04:50:05.914Z,21.50
2018-06-30T04:53:10.074Z,21.60
2018-06-30T04:56:14.593Z,21.80
2018-06-30T04:59:19.087Z,21.70
2018-06-30T05:02:23.247Z,21.80
2018-06-30T05:05:27.622Z,22.00
2018-06-30T05:08:31.875Z,22.10
2018-06-30T05:11:36.164Z,22.30
2018-06-30T05:14:40.474Z,22.40
2018-06-30T05:17:44.830Z,22.50
2018-06-30T05:20:49.415Z,22.60
2018-06-30T05:23:53.723Z,22.60
2018-06-30T05:26:58.051Z,22.70
2018-06-30T05:30:02.488Z,22.70
2018-06-30T05:33:06.649Z,22.70
2018-06-30T05:36:11.206Z,22.80
2018-06-30T05:39:15.650Z,22.90
2018-06-30T05:42:20.001Z,23.00
2018-06-30T05:45:24.312Z,23.10
2018-06-30T05:48:28.610Z,23.30
2018-06-30T05:51:32.776Z,23.40
2018-06-30T05:54:37.191Z,23.60
2018-06-30T05:57:41.423Z,23.80
2018-06-30T06:00:45.604Z,24.10
2018-06-30T06:03:50.033Z,24.20
2018-06-30T06:06:54.437Z,24.30
2018-06-30T06:09:58.947Z,24.50
2018-06-30T06:13:03.408Z,24.80
2018-06-30T06:16:07.716Z,25.10
2018-06-30T06:19:12.125Z,25.50
2018-06-30T06:22:16.671Z,26.00
2018-06-30T06:25:21.164Z,26.70
2018-06-30T06:28:25.578Z,27.30
2018-06-30T06:34:34.173Z,28.50
2018-06-30T06:37:38.503Z,29.20
2018-06-30T06:40:42.809Z,29.80
2018-06-30T06:43:47.098Z,30.40
2018-06-30T06:46:51.553Z,31.30
2018-06-30T06:49:55.893Z,31.70
2018-06-30T06:53:00.402Z,32.50
2018-06-30T06:56:04.805Z,33.10
2018-06-30T06:59:09.805Z,33.70
2018-06-30T07:02:14.292Z,34.40
2018-06-30T07:05:18.715Z,35.20
2018-06-30T07:08:23.083Z,35.60
2018-06-30T07:11:27.454Z,36.10
2018-06-30T07:14:31.955Z,36.60
2018-06-30T07:17:36.294Z,37.00
2018-06-30T07:20:41.015Z,37.60
2018-06-30T07:23:45.344Z,38.30
2018-06-30T07:26:49.708Z,38.50
2018-06-30T07:29:54.041Z,38.80
2018-06-30T07:32:58.321Z,39.40
2018-06-30T07:36:02.862Z,39.70
2018-06-30T07:39:09.247Z,39.10
2018-06-30T07:42:13.552Z,38.70
2018-06-30T07:45:17.776Z,38.60
2018-06-30T07:48:23.037Z,38.40
2018-06-30T07:51:27.522Z,37.70
2018-06-30T07:54:31.827Z,36.80
2018-06-30T07:57:35.871Z,36.20
2018-06-30T08:00:40.146Z,35.90
2018-06-30T08:03:44.519Z,35.40
2018-06-30T08:06:48.845Z,35.30
2018-06-30T08:09:53.074Z,34.90
2018-06-30T08:12:57.433Z,34.40
2018-06-30T08:16:02.674Z,33.90
2018-06-30T08:19:07.338Z,33.30
2018-06-30T08:22:11.652Z,32.90
2018-06-30T08:25:15.952Z,32.50
2018-06-30T08:28:20.245Z,32.30
2018-06-30T08:31:24.848Z,31.90
2018-06-30T08:34:29.675Z,31.60
2018-06-30T08:37:34.018Z,31.20
2018-06-30T08:40:38.375Z,31.00
2018-06-30T08:43:42.657Z,31.00
2018-06-30T08:46:46.973Z,31.00
2018-06-30T08:49:51.245Z,31.00
2018-06-30T08:52:55.419Z,31.10
2018-06-30T08:55:59.884Z,31.20
2018-06-30T08:59:04.322Z,31.30
2018-06-30T09:02:08.708Z,31.30
2018-06-30T09:05:12.962Z,31.30
2018-06-30T09:08:17.327Z,31.40
2018-06-30T09:11:21.728Z,31.60
2018-06-30T09:14:26.222Z,31.60
2018-06-30T09:17:30.642Z,31.60
2018-06-30T09:20:35.026Z,31.50
2018-06-30T09:23:39.191Z,31.50
2018-06-30T09:26:43.482Z,31.30
2018-06-30T09:29:47.828Z,31.20
2018-06-30T09:32:52.171Z,31.20
2018-06-30T09:35:56.623Z,31.40
2018-06-30T09:39:00.959Z,31.40
2018-06-30T09:42:05.376Z,31.10
2018-06-30T09:45:09.751Z,30.70
2018-06-30T09:48:13.924Z,30.50
2018-06-30T09:51:18.129Z,30.40
2018-06-30T09:54:22.506Z,30.40
2018-06-30T09:57:27.214Z,30.50
2018-06-30T10:00:38.544Z,30.60
2018-06-30T10:03:42.812Z,30.80
2018-06-30T10:06:47.179Z,30.70
2018-06-30T10:09:51.469Z,30.50
2018-06-30T10:12:55.602Z,30.40
2018-06-30T10:15:59.890Z,30.60
2018-06-30T10:19:04.465Z,30.80
2018-06-30T10:22:08.884Z,30.90
2018-06-30T10:25:13.207Z,31.00
2018-06-30T10:28:17.383Z,30.90
2018-06-30T10:31:21.961Z,30.80
2018-06-30T10:34:26.347Z,30.80
2018-06-30T10:37:30.455Z,30.70
2018-06-30T10:40:35.890Z,30.60
2018-06-30T10:43:40.350Z,30.50
2018-06-30T10:46:44.677Z,30.30
2018-06-30T10:49:48.920Z,30.00
2018-06-30T10:52:53.461Z,29.80
2018-06-30T10:59:03.138Z,30.10
2018-06-30T11:02:07.539Z,30.00
2018-06-30T11:05:12.661Z,30.00
2018-06-30T11:08:17.013Z,30.30
2018-06-30T11:11:21.349Z,30.10
2018-06-30T11:14:25.644Z,30.00
2018-06-30T11:17:30.029Z,29.90
2018-06-30T11:20:34.513Z,29.80
2018-06-30T11:23:38.992Z,30.00
2018-06-30T11:26:43.317Z,30.20
2018-06-30T11:29:47.647Z,30.30
2018-06-30T11:32:51.972Z,30.50
2018-06-30T11:35:57.304Z,30.60
2018-06-30T11:39:01.635Z,30.70
2018-06-30T11:42:06.157Z,30.80
2018-06-30T11:45:10.419Z,30.90
2018-06-30T11:48:14.813Z,31.00
2018-06-30T11:51:19.192Z,31.30
2018-06-30T11:54:23.391Z,31.60
2018-06-30T12:00:31.535Z,32.10
2018-06-30T12:03:35.957Z,32.30
2018-06-30T12:06:40.336Z,32.40
2018-06-30T12:09:44.628Z,32.30
2018-06-30T12:12:48.978Z,32.30
2018-06-30T12:15:53.345Z,32.20
2018-06-30T12:18:57.820Z,32.00
2018-06-30T12:22:02.371Z,31.70
2018-06-30T12:25:06.598Z,31.10
2018-06-30T12:28:11.066Z,30.90
2018-06-30T12:31:15.458Z,30.90
2018-06-30T12:34:19.700Z,30.90
2018-06-30T12:37:23.990Z,31.00
2018-06-30T12:40:28.133Z,30.90
2018-06-30T12:43:32.519Z,30.60
2018-06-30T12:46:36.798Z,30.20
2018-06-30T12:49:41.253Z,29.90
2018-06-30T12:52:45.554Z,30.00
2018-06-30T12:55:49.805Z,29.90
2018-06-30T12:58:54.201Z,29.70
2018-06-30T13:01:58.673Z,29.10
2018-06-30T13:05:02.900Z,28.50
2018-06-30T13:08:07.168Z,28.10
2018-06-30T13:11:11.386Z,28.10
2018-06-30T13:14:15.632Z,28.00
2018-06-30T13:17:20.981Z,28.00
2018-06-30T13:20:25.261Z,28.10
2018-06-30T13:23:29.771Z,28.30
2018-06-30T13:26:34.059Z,28.00
2018-06-30T13:29:38.509Z,27.50
2018-06-30T13:32:42.814Z,27.30
2018-06-30T13:35:47.164Z,27.30
2018-06-30T13:38:51.396Z,27.30
2018-06-30T13:41:55.622Z,27.30
2018-06-30T13:44:59.934Z,27.70
2018-06-30T13:48:04.750Z,28.00
2018-06-30T13:51:09.022Z,28.30
2018-06-30T13:54:13.522Z,28.30
2018-06-30T13:57:17.942Z,28.30
2018-06-30T14:00:22.118Z,28.60
2018-06-30T14:03:26.277Z,28.90
2018-06-30T14:06:30.853Z,29.00
2018-06-30T14:09:35.138Z,29.20
2018-06-30T14:12:39.512Z,29.20
2018-06-30T14:15:43.847Z,29.20
2018-06-30T14:18:48.147Z,29.00
2018-06-30T14:21:52.561Z,28.80
2018-06-30T14:24:57.014Z,28.50
2018-06-30T14:28:01.446Z,28.30
2018-06-30T14:31:05.937Z,28.10
2018-06-30T14:34:10.326Z,28.00
2018-06-30T14:37:14.886Z,27.90
2018-06-30T14:40:18.925Z,27.80
2018-06-30T14:43:23.456Z,27.70
2018-06-30T14:46:27.518Z,27.80
2018-06-30T14:49:31.475Z,27.90
2018-06-30T14:52:35.650Z,27.80
2018-06-30T14:55:40.214Z,27.50
2018-06-30T14:58:44.510Z,27.40
2018-06-30T15:01:49.647Z,27.20
2018-06-30T15:04:54.119Z,27.20
2018-06-30T15:07:58.460Z,27.10
2018-06-30T15:11:02.807Z,27.00
2018-06-30T15:14:07.148Z,26.80
2018-06-30T15:17:11.673Z,26.70
2018-06-30T15:20:16.167Z,26.70
2018-06-30T15:23:20.669Z,26.80
2018-06-30T15:26:25.108Z,27.30
2018-06-30T15:29:29.442Z,27.70
2018-06-30T15:35:37.824Z,28.20
2018-06-30T15:38:42.103Z,28.20
2018-06-30T15:41:46.570Z,28.20
2018-06-30T15:44:51.009Z,28.20
2018-06-30T15:47:55.345Z,28.00
2018-06-30T15:51:00.289Z,28.00
2018-06-30T15:54:04.706Z,27.90
2018-06-30T15:57:09.247Z,27.50
2018-06-30T16:00:13.603Z,27.10
2018-06-30T16:03:18.432Z,26.90
2018-06-30T16:06:22.687Z,26.50
2018-06-30T16:09:27.550Z,26.30
2018-06-30T16:12:32.884Z,26.30
2018-06-30T16:15:37.484Z,26.10
2018-06-30T16:18:41.825Z,26.20
2018-06-30T16:21:46.162Z,26.00
2018-06-30T16:24:50.579Z,25.90
2018-06-30T16:27:54.918Z,25.90
2018-06-30T16:30:59.338Z,25.80
2018-06-30T16:34:03.674Z,25.70
2018-06-30T16:37:08.059Z,25.60
2018-06-30T16:40:12.503Z,25.50
2018-06-30T16:43:16.856Z,25.20
2018-06-30T16:46:21.241Z,25.20
2018-06-30T16:49:25.794Z,25.20
2018-06-30T16:52:30.093Z,25.20
2018-06-30T16:55:34.200Z,25.20
2018-06-30T16:58:38.535Z,25.00
2018-06-30T17:01:42.861Z,24.90
2018-06-30T17:04:47.224Z,25.00
2018-06-30T17:07:51.495Z,25.00
2018-06-30T17:10:55.791Z,25.10
2018-06-30T17:14:00.452Z,25.10
2018-06-30T17:17:04.786Z,25.20
2018-06-30T17:20:09.155Z,25.10
2018-06-30T17:23:14.022Z,24.90
2018-06-30T17:26:18.390Z,24.80
2018-06-30T17:29:22.791Z,24.70
2018-06-30T17:32:27.116Z,24.40
2018-06-30T17:35:31.570Z,24.30
2018-06-30T17:38:35.870Z,24.30
2018-06-30T17:41:40.992Z,24.30
2018-06-30T17:44:46.260Z,24.30
2018-06-30T17:47:50.712Z,24.30
2018-06-30T17:50:55.702Z,24.20
2018-06-30T17:54:00.126Z,24.10
2018-06-30T17:57:04.762Z,24.20
2018-06-30T18:00:09.554Z,24.20
2018-06-30T18:03:14.941Z,24.30
2018-06-30T18:06:19.314Z,24.20
2018-06-30T18:09:23.686Z,23.90
2018-06-30T18:12:28.223Z,23.70
2018-06-30T18:15:32.669Z,23.70
2018-06-30T18:18:37.831Z,23.60
2018-06-30T18:21:42.153Z,23.50
2018-06-30T18:24:46.798Z,23.50
2018-06-30T18:27:51.289Z,23.30
2018-06-30T18:30:56.801Z,23.40
2018-06-30T18:34:01.538Z,23.30
2018-06-30T18:37:06.195Z,23.10
2018-06-30T18:40:10.587Z,23.00
2018-06-30T18:43:14.960Z,23.10
2018-06-30T18:46:19.511Z,23.00
2018-06-30T18:49:23.811Z,23.10
2018-06-30T18:52:28.372Z,23.10
2018-06-30T18:55:32.661Z,23.10
2018-06-30T18:58:39.752Z,23.00
2018-06-30T19:01:44.072Z,23.00
2018-06-30T19:04:50.783Z,22.90
2018-06-30T19:07:55.314Z,22.80
2018-06-30T19:10:59.714Z,22.70
2018-06-30T19:14:04.224Z,22.60
2018-06-30T19:17:09.755Z,22.50
2018-06-30T19:20:14.374Z,22.40
2018-06-30T19:23:18.907Z,22.40
2018-06-30T19:26:23.242Z,22.30
2018-06-30T19:29:27.908Z,22.40
2018-06-30T19:32:32.210Z,22.30
2018-06-30T19:35:36.585Z,22.10
2018-06-30T19:38:40.802Z,22.00
2018-06-30T19:41:45.203Z,22.00
2018-06-30T19:44:49.587Z,21.90
2018-06-30T19:47:53.921Z,21.90
2018-06-30T19:50:58.274Z,21.80
2018-06-30T19:54:02.572Z,21.70
2018-06-30T19:57:07.250Z,21.70
2018-06-30T20:00:12.500Z,21.70
2018-06-30T20:03:16.877Z,21.70
2018-06-30T20:06:21.374Z,21.70
2018-06-30T20:09:25.945Z,21.60
2018-06-30T20:12:30.080Z,21.50
2018-06-30T20:15:34.206Z,21.20
2018-06-30T20:18:38.434Z,21.20
2018-06-30T20:21:43.014Z,21.30
2018-06-30T20:24:47.383Z,21.30
2018-06-30T20:27:51.710Z,21.20
2018-06-30T20:30:56.094Z,21.10
2018-06-30T20:34:01.077Z,21.00
2018-06-30T20:37:05.714Z,20.90
2018-06-30T20:40:10.140Z,20.70
2018-06-30T20:43:14.482Z,20.70
2018-06-30T20:46:18.793Z,20.70
2018-06-30T20:49:23.446Z,20.60
2018-06-30T20:52:27.823Z,20.60
2018-06-30T20:55:32.334Z,20.60
2018-06-30T20:58:36.618Z,20.60
2018-06-30T21:01:41.040Z,20.40
2018-06-30T21:07:49.171Z,20.30
2018-06-30T21:10:53.552Z,20.30
2018-06-30T21:13:57.923Z,20.30
2018-06-30T21:17:02.687Z,20.30
2018-06-30T21:20:07.731Z,20.30
2018-06-30T21:23:12.167Z,20.30
2018-06-30T21:26:16.448Z,20.20
2018-06-30T21:32:24.516Z,20.10
2018-06-30T21:35:28.699Z,20.10
2018-06-30T21:38:33.090Z,20.10
2018-06-30T21:41:37.465Z,20.10
2018-06-30T21:44:41.705Z,20.00
2018-06-30T21:47:52.345Z,19.90
2018-06-30T21:50:57.034Z,19.80
2018-06-30T21:54:01.588Z,19.70
2018-06-30T21:57:05.995Z,19.60
2018-06-30T22:00:12.753Z,19.60
2018-06-30T22:03:24.659Z,19.60
2018-06-30T22:06:28.975Z,19.60
2018-06-30T22:09:33.139Z,19.60
2018-06-30T22:12:37.605Z,19.60
2018-06-30T22:15:41.948Z,19.60
2018-06-30T22:18:46.120Z,19.50
2018-06-30T22:21:50.275Z,19.40
2018-06-30T22:24:54.742Z,19.40
2018-06-30T22:27:58.937Z,19.40
2018-06-30T22:31:03.220Z,19.40
2018-06-30T22:34:07.860Z,19.40
2018-06-30T22:37:12.206Z,19.40
2018-06-30T22:40:19.022Z,19.30
2018-06-30T22:43:23.294Z,19.20
2018-06-30T22:46:27.490Z,19.30
2018-06-30T22:49:31.946Z,19.20
2018-06-30T22:52:36.336Z,19.20
2018-06-30T22:55:40.686Z,19.20
2018-06-30T22:58:45.100Z,19.10
2018-06-30T23:01:49.663Z,19.10
2018-06-30T23:04:53.967Z,19.10
2018-06-30T23:07:58.344Z,19.00
2018-06-30T23:11:02.568Z,19.00
2018-06-30T23:14:07.025Z,19.00
2018-06-30T23:17:11.477Z,18.90
2018-06-30T23:20:15.561Z,18.80
2018-06-30T23:23:20.707Z,18.70
2018-06-30T23:26:25.091Z,18.70
2018-06-30T23:29:29.431Z,18.60
2018-06-30T23:32:33.962Z,18.60
2018-06-30T23:35:38.515Z,18.50
2018-06-30T23:38:42.984Z,18.40
2018-06-30T23:41:47.513Z,18.30
2018-06-30T23:44:51.809Z,18.20
2018-06-30T23:47:56.194Z,18.10
2018-06-30T23:51:00.638Z,18.10
2018-06-30T23:54:05.024Z,18.00
2018-06-30T23:57:09.348Z,18.10
